createdAt,value
2017-03-04T00:00:26.899Z,0
2017-03-04T00:01:36.531Z,0
2017-03-04T00:02:46.529Z,0
2017-03-04T00:03:56.569Z,0
2017-03-04T00:05:07.395Z,0
2017-03-04T00:06:18.202Z,0
2017-03-04T00:07:28.622Z,0
2017-03-04T00:08:39.420Z,0
2017-03-04T00:09:49.425Z,0
2017-03-04T00:11:00.049Z,0
2017-03-04T00:12:10.843Z,0
2017-03-04T00:13:21.661Z,0
2017-03-04T00:14:32.510Z,0
2017-03-04T00:15:42.901Z,0
2017-03-04T00:16:53.711Z,0
2017-03-04T00:18:04.921Z,0
2017-03-04T00:19:15.309Z,0
2017-03-04T00:20:26.142Z,0
2017-03-04T00:21:36.544Z,0
2017-03-04T00:22:46.954Z,0
2017-03-04T00:23:57.752Z,0
2017-03-04T00:25:07.766Z,0
2017-03-04T00:26:18.156Z,0
2017-03-04T00:27:28.599Z,0
2017-03-04T00:28:38.996Z,0
2017-03-04T00:29:49.801Z,0
2017-03-04T00:31:00.593Z,0
2017-03-04T00:32:11.010Z,0
2017-03-04T00:33:21.039Z,0
2017-03-04T00:34:31.515Z,0
2017-03-04T00:35:41.913Z,0
2017-03-04T00:36:52.292Z,0
2017-03-04T00:38:02.313Z,0
2017-03-04T00:39:12.707Z,0
2017-03-04T00:40:23.099Z,0
2017-03-04T00:41:33.900Z,0
2017-03-04T00:42:44.301Z,0
2017-03-04T00:43:54.681Z,0
2017-03-04T00:45:05.499Z,0
2017-03-04T00:46:16.311Z,0
2017-03-04T00:47:26.989Z,0
2017-03-04T00:48:37.773Z,0
2017-03-04T00:49:48.586Z,0
2017-03-04T00:50:58.994Z,0
2017-03-04T00:52:09.776Z,0
2017-03-04T00:53:19.768Z,0
2017-03-04T00:54:29.373Z,0
2017-03-04T00:55:39.364Z,0
2017-03-04T00:56:49.750Z,0
2017-03-04T00:58:00.533Z,0
2017-03-04T00:59:10.908Z,0
2017-03-04T01:00:21.691Z,0
2017-03-04T01:01:32.104Z,0
2017-03-04T01:02:42.495Z,0
2017-03-04T01:03:53.285Z,0
2017-03-04T01:05:04.118Z,0
2017-03-04T01:06:14.916Z,0
2017-03-04T01:07:25.311Z,0
2017-03-04T01:08:36.094Z,0
2017-03-04T01:09:45.696Z,0
2017-03-04T01:10:56.088Z,0
2017-03-04T01:12:06.904Z,0
2017-03-04T01:13:16.884Z,0
2017-03-04T01:14:27.667Z,0
2017-03-04T01:15:38.698Z,0
2017-03-04T01:16:49.082Z,0
2017-03-04T01:17:59.456Z,0
2017-03-04T01:19:09.038Z,0
2017-03-04T01:20:19.864Z,0
2017-03-04T01:21:30.263Z,0
2017-03-04T01:22:40.645Z,0
2017-03-04T01:23:51.032Z,0
2017-03-04T01:25:01.438Z,0
2017-03-04T01:26:12.214Z,0
2017-03-04T01:27:22.206Z,0
2017-03-04T01:28:32.599Z,0
2017-03-04T01:29:43.395Z,0
2017-03-04T01:30:54.168Z,0
2017-03-04T01:32:04.543Z,0
2017-03-04T01:33:15.344Z,0
2017-03-04T01:34:26.147Z,0
2017-03-04T01:35:35.766Z,0
2017-03-04T01:36:46.556Z,0
2017-03-04T01:37:56.148Z,0
2017-03-04T01:39:06.137Z,0
2017-03-04T01:40:16.911Z,0
2017-03-04T01:41:26.918Z,0
2017-03-04T01:42:37.307Z,0
2017-03-04T01:43:48.079Z,0
2017-03-04T01:44:58.467Z,0
2017-03-04T01:46:08.858Z,0
2017-03-04T01:47:18.840Z,0
2017-03-04T01:48:29.218Z,0
2017-03-04T01:49:39.604Z,0
2017-03-04T01:50:50.011Z,0
2017-03-04T01:52:00.007Z,0
2017-03-04T01:53:10.404Z,0
2017-03-04T01:54:21.206Z,0
2017-03-04T01:55:31.617Z,0
2017-03-04T01:56:42.415Z,0
2017-03-04T01:57:52.799Z,0
2017-03-04T01:59:03.617Z,0
2017-03-04T02:00:14.379Z,0
2017-03-04T02:01:24.746Z,0
2017-03-04T02:02:35.185Z,0
2017-03-04T02:03:45.983Z,0
2017-03-04T02:04:56.352Z,0
2017-03-04T02:06:06.746Z,0
2017-03-04T02:07:17.539Z,0
2017-03-04T02:08:27.940Z,0
2017-03-04T02:09:37.157Z,0
2017-03-04T02:10:47.955Z,0
2017-03-04T02:11:58.350Z,0
2017-03-04T02:13:09.150Z,0
2017-03-04T02:14:19.545Z,0
2017-03-04T02:15:29.946Z,0
2017-03-04T02:16:39.934Z,0
2017-03-04T02:17:50.327Z,0
2017-03-04T02:19:01.141Z,0
2017-03-04T02:20:11.552Z,0
2017-03-04T02:21:21.959Z,0
2017-03-04T02:22:32.349Z,0
2017-03-04T02:23:43.128Z,0
2017-03-04T02:24:53.530Z,0
2017-03-04T02:26:04.342Z,0
2017-03-04T02:27:14.718Z,0
2017-03-04T02:28:25.519Z,0
2017-03-04T02:29:35.532Z,0
2017-03-04T02:30:45.517Z,0
2017-03-04T02:31:55.514Z,0
2017-03-04T02:33:06.301Z,0
2017-03-04T02:34:17.098Z,0
2017-03-04T02:35:27.462Z,0
2017-03-04T02:36:37.467Z,0
2017-03-04T02:37:48.264Z,0
2017-03-04T02:38:58.694Z,0
2017-03-04T02:40:08.305Z,0
2017-03-04T02:41:18.673Z,0
2017-03-04T02:42:29.458Z,0
2017-03-04T02:43:40.237Z,0
2017-03-04T02:44:51.033Z,0
2017-03-04T02:46:01.801Z,0
2017-03-04T02:47:12.188Z,0
2017-03-04T02:48:22.969Z,0
2017-03-04T02:49:33.757Z,0
2017-03-04T02:50:44.131Z,0
2017-03-04T02:51:54.534Z,0
2017-03-04T02:53:04.916Z,0
2017-03-04T02:54:15.307Z,0
2017-03-04T02:55:26.109Z,0
2017-03-04T02:56:36.520Z,0
2017-03-04T02:57:46.509Z,0
2017-03-04T02:58:56.486Z,0
2017-03-04T03:00:06.918Z,0
2017-03-04T03:01:17.692Z,0
2017-03-04T03:32:22.039Z,0
2017-03-04T03:33:32.821Z,0
2017-03-04T03:34:42.013Z,0
2017-03-04T03:35:52.790Z,0
2017-03-04T03:37:03.551Z,0
2017-03-04T03:38:13.977Z,0
2017-03-04T03:39:24.745Z,0
2017-03-04T03:40:35.125Z,0
2017-03-04T03:41:45.552Z,0
2017-03-04T03:42:55.934Z,0
2017-03-04T03:44:06.768Z,0
2017-03-04T03:45:17.163Z,0
2017-03-04T03:46:27.976Z,0
2017-03-04T03:47:38.760Z,0
2017-03-04T03:48:49.143Z,0
2017-03-04T03:49:59.933Z,0
2017-03-04T03:51:10.711Z,0
2017-03-04T03:52:21.108Z,0
2017-03-04T03:53:31.884Z,0
2017-03-04T03:54:42.300Z,0
2017-03-04T03:55:52.284Z,0
2017-03-04T03:57:02.657Z,0
2017-03-04T03:58:12.659Z,0
2017-03-04T03:59:23.448Z,0
2017-03-04T04:00:34.232Z,0
2017-03-04T04:01:45.005Z,0
2017-03-04T04:02:55.789Z,0
2017-03-04T04:04:06.161Z,0
2017-03-04T04:05:16.944Z,0
2017-03-04T04:06:27.347Z,0
2017-03-04T04:07:38.145Z,0
2017-03-04T04:08:48.146Z,0
2017-03-04T04:09:58.945Z,0
2017-03-04T04:11:09.332Z,0
2017-03-04T04:12:20.114Z,0
2017-03-04T04:13:30.505Z,0
2017-03-04T04:14:40.893Z,0
2017-03-04T04:15:51.291Z,0
2017-03-04T04:17:01.683Z,0
2017-03-04T04:18:12.472Z,0
2017-03-04T04:19:23.272Z,0
2017-03-04T04:20:33.694Z,0
2017-03-04T04:21:44.075Z,0
2017-03-04T04:22:54.850Z,0
2017-03-04T04:24:05.625Z,0
2017-03-04T04:25:16.026Z,0
2017-03-04T04:26:26.409Z,0
2017-03-04T04:27:36.783Z,0
2017-03-04T04:28:47.555Z,0
2017-03-04T04:29:57.564Z,0
2017-03-04T04:31:07.960Z,0
2017-03-04T04:32:17.957Z,0
2017-03-04T04:33:28.780Z,0
2017-03-04T04:34:38.379Z,0
2017-03-04T04:35:49.166Z,0
2017-03-04T04:36:59.584Z,0
2017-03-04T04:38:09.959Z,0
2017-03-04T04:39:20.341Z,0
2017-03-04T04:40:30.340Z,0
2017-03-04T04:41:41.115Z,0
2017-03-04T04:42:51.504Z,0
2017-03-04T04:44:01.904Z,0
2017-03-04T04:45:12.292Z,0
2017-03-04T04:46:23.113Z,0
2017-03-04T04:47:33.498Z,0
2017-03-04T04:48:43.895Z,0
2017-03-04T04:49:54.698Z,0
2017-03-04T04:51:04.699Z,0
2017-03-04T04:52:15.467Z,0
2017-03-04T04:53:25.873Z,0
2017-03-04T04:54:36.670Z,0
2017-03-04T04:55:46.660Z,0
2017-03-04T04:56:57.447Z,0
2017-03-04T04:58:08.236Z,0
2017-03-04T04:59:19.051Z,0
2017-03-04T05:00:29.854Z,0
2017-03-04T05:01:40.620Z,0
2017-03-04T05:02:51.051Z,0
2017-03-04T05:04:00.266Z,0
2017-03-04T05:05:10.263Z,0
2017-03-04T05:06:20.291Z,0
2017-03-04T05:07:30.672Z,0
2017-03-04T05:08:41.454Z,0
2017-03-04T05:09:51.469Z,0
2017-03-04T05:11:01.855Z,0
2017-03-04T05:12:11.861Z,0
2017-03-04T05:13:22.237Z,0
2017-03-04T05:14:32.629Z,0
2017-03-04T05:15:43.005Z,0
2017-03-04T05:16:53.385Z,0
2017-03-04T05:18:04.175Z,0
2017-03-04T05:19:14.171Z,0
2017-03-04T05:20:24.597Z,0
2017-03-04T05:21:35.245Z,0
2017-03-04T05:22:46.025Z,0
2017-03-04T05:23:56.823Z,0
2017-03-04T05:25:07.207Z,0
2017-03-04T05:26:17.601Z,0
2017-03-04T05:27:28.395Z,0
2017-03-04T05:28:38.794Z,0
2017-03-04T05:29:49.180Z,0
2017-03-04T05:31:00.012Z,0
2017-03-04T05:32:10.829Z,5
2017-03-04T05:33:21.640Z,5
2017-03-04T05:34:32.411Z,5
2017-03-04T05:35:42.800Z,5
2017-03-04T05:36:53.171Z,5
2017-03-04T05:38:03.959Z,5
2017-03-04T05:39:14.724Z,5
2017-03-04T05:40:25.115Z,10
2017-03-04T05:41:35.102Z,10
2017-03-04T05:42:45.865Z,10
2017-03-04T05:43:56.257Z,10
2017-03-04T05:45:06.657Z,10
2017-03-04T05:46:17.073Z,15
2017-03-04T05:47:27.855Z,15
2017-03-04T05:48:37.834Z,15
2017-03-04T05:49:48.224Z,15
2017-03-04T05:50:59.010Z,15
2017-03-04T05:52:09.009Z,20
2017-03-04T05:53:19.795Z,20
2017-03-04T05:54:30.186Z,20
2017-03-04T05:55:40.579Z,20
2017-03-04T05:56:50.979Z,20
2017-03-04T05:58:01.387Z,25
2017-03-04T05:59:12.178Z,25
2017-03-04T06:00:21.769Z,25
2017-03-04T06:01:32.150Z,25
2017-03-04T06:02:42.947Z,25
2017-03-04T06:03:52.551Z,30
2017-03-04T06:05:02.551Z,30
2017-03-04T06:06:12.925Z,30
2017-03-04T06:07:23.335Z,30
2017-03-04T06:08:33.366Z,30
2017-03-04T06:09:43.778Z,30
2017-03-04T06:10:54.152Z,35
2017-03-04T06:12:04.927Z,35
2017-03-04T06:13:15.334Z,35
2017-03-04T06:14:25.706Z,35
2017-03-04T06:15:36.104Z,40
2017-03-04T06:16:46.903Z,40
2017-03-04T06:17:57.719Z,45
2017-03-04T06:19:08.507Z,45
2017-03-04T06:20:19.276Z,45
2017-03-04T06:21:29.296Z,45
2017-03-04T06:22:39.677Z,45
2017-03-04T06:23:50.061Z,45
2017-03-04T06:25:00.051Z,50
2017-03-04T06:26:09.668Z,50
2017-03-04T06:27:20.445Z,50
2017-03-04T06:28:31.223Z,50
2017-03-04T06:29:42.012Z,50
2017-03-04T06:30:52.409Z,55
2017-03-04T06:32:02.806Z,55
2017-03-04T06:33:13.183Z,55
2017-03-04T06:34:23.560Z,55
2017-03-04T06:35:34.393Z,55
2017-03-04T06:36:45.165Z,60
2017-03-04T06:37:56.014Z,60
2017-03-04T06:39:06.436Z,60
2017-03-04T06:40:16.440Z,65
2017-03-04T06:41:27.245Z,70
2017-03-04T06:42:37.648Z,70
2017-03-04T06:43:48.439Z,70
2017-03-04T06:44:58.852Z,70
2017-03-04T06:46:09.232Z,70
2017-03-04T06:47:19.650Z,70
2017-03-04T06:48:30.034Z,70
2017-03-04T06:49:40.029Z,70
2017-03-04T06:50:50.004Z,75
2017-03-04T06:51:59.996Z,75
2017-03-04T06:53:10.778Z,80
2017-03-04T06:54:21.224Z,80
2017-03-04T06:55:31.997Z,80
2017-03-04T06:56:42.438Z,85
2017-03-04T06:57:52.821Z,90
2017-03-04T06:59:03.198Z,90
2017-03-04T07:00:13.587Z,90
2017-03-04T07:01:23.968Z,95
2017-03-04T07:02:34.337Z,100
2017-03-04T07:03:44.365Z,105
2017-03-04T07:04:54.354Z,110
2017-03-04T07:06:04.347Z,110
2017-03-04T07:07:14.739Z,110
2017-03-04T07:08:25.539Z,115
2017-03-04T07:09:35.963Z,115
2017-03-04T07:10:45.987Z,115
2017-03-04T07:11:56.396Z,115
2017-03-04T07:13:06.776Z,115
2017-03-04T07:14:17.183Z,115
2017-03-04T07:15:27.989Z,120
2017-03-04T07:16:38.002Z,120
2017-03-04T07:17:48.403Z,130
2017-03-04T07:18:59.213Z,125
2017-03-04T07:20:09.996Z,135
2017-03-04T07:21:20.785Z,130
2017-03-04T07:22:31.576Z,130
2017-03-04T07:23:41.967Z,130
2017-03-04T07:24:52.372Z,135
2017-03-04T07:26:03.167Z,130
2017-03-04T07:27:12.768Z,135
2017-03-04T07:28:23.169Z,140
2017-03-04T07:29:33.976Z,140
2017-03-04T07:30:43.981Z,145
2017-03-04T07:31:54.373Z,140
2017-03-04T07:33:05.150Z,135
2017-03-04T07:34:15.579Z,130
2017-03-04T07:35:25.576Z,125
2017-03-04T07:36:35.569Z,125
2017-03-04T07:37:45.563Z,120
2017-03-04T07:38:56.370Z,120
2017-03-04T07:40:06.771Z,120
2017-03-04T07:41:17.161Z,120
2017-03-04T07:42:27.545Z,120
2017-03-04T07:43:38.347Z,125
2017-03-04T07:44:49.129Z,140
2017-03-04T07:45:59.511Z,155
2017-03-04T07:47:10.320Z,155
2017-03-04T07:48:21.107Z,160
2017-03-04T07:49:31.905Z,160
2017-03-04T07:50:42.707Z,160
2017-03-04T07:51:53.103Z,160
2017-03-04T07:53:03.494Z,170
2017-03-04T07:54:14.296Z,170
2017-03-04T07:55:25.075Z,170
2017-03-04T07:56:35.442Z,165
2017-03-04T07:57:45.824Z,165
2017-03-04T07:58:56.234Z,165
2017-03-04T08:00:06.645Z,165
2017-03-04T08:01:17.049Z,175
2017-03-04T08:02:27.424Z,165
2017-03-04T08:03:38.217Z,165
2017-03-04T08:04:48.207Z,150
2017-03-04T08:05:58.212Z,150
2017-03-04T08:07:09.015Z,145
2017-03-04T08:08:18.663Z,150
2017-03-04T08:09:28.673Z,155
2017-03-04T08:10:39.071Z,165
2017-03-04T08:11:49.469Z,170
2017-03-04T08:12:59.865Z,170
2017-03-04T08:14:10.272Z,170
2017-03-04T08:15:20.672Z,170
2017-03-04T08:16:31.074Z,175
2017-03-04T08:17:41.485Z,180
2017-03-04T08:18:51.894Z,175
2017-03-04T08:20:02.705Z,180
2017-03-04T08:21:13.501Z,180
2017-03-04T08:22:24.340Z,180
2017-03-04T08:23:35.146Z,180
2017-03-04T08:24:45.937Z,185
2017-03-04T08:25:56.723Z,185
2017-03-04T08:27:07.129Z,185
2017-03-04T08:28:17.936Z,185
2017-03-04T08:29:28.718Z,190
2017-03-04T08:30:39.127Z,195
2017-03-04T08:31:49.129Z,195
2017-03-04T08:32:59.529Z,195
2017-03-04T08:34:10.295Z,185
2017-03-04T08:35:21.094Z,180
2017-03-04T08:36:31.525Z,180
2017-03-04T08:37:41.931Z,180
2017-03-04T08:38:52.728Z,180
2017-03-04T08:40:02.339Z,180
2017-03-04T08:41:12.345Z,180
2017-03-04T08:42:22.362Z,170
2017-03-04T08:43:32.363Z,175
2017-03-04T08:44:42.750Z,185
2017-03-04T08:45:53.193Z,185
2017-03-04T08:47:03.188Z,185
2017-03-04T08:48:13.986Z,185
2017-03-04T08:49:24.387Z,195
2017-03-04T08:50:34.792Z,205
2017-03-04T08:51:44.805Z,205
2017-03-04T08:52:55.241Z,205
2017-03-04T08:54:05.640Z,205
2017-03-04T08:55:16.024Z,205
2017-03-04T08:56:26.416Z,200
2017-03-04T08:57:36.007Z,200
2017-03-04T08:58:46.017Z,200
2017-03-04T08:59:56.812Z,205
2017-03-04T09:01:07.211Z,200
2017-03-04T09:02:18.033Z,210
2017-03-04T09:03:28.853Z,205
2017-03-04T09:04:39.270Z,200
2017-03-04T09:05:49.661Z,205
2017-03-04T09:07:00.464Z,205
2017-03-04T09:08:11.254Z,220
2017-03-04T09:09:21.662Z,215
2017-03-04T09:10:32.453Z,215
2017-03-04T09:11:42.865Z,220
2017-03-04T09:12:53.261Z,220
2017-03-04T09:14:04.074Z,225
2017-03-04T09:15:14.496Z,210
2017-03-04T09:16:24.509Z,215
2017-03-04T09:17:34.498Z,215
2017-03-04T09:18:44.918Z,210
2017-03-04T09:19:55.734Z,195
2017-03-04T09:21:06.530Z,195
2017-03-04T09:22:16.936Z,190
2017-03-04T09:23:27.567Z,175
2017-03-04T09:24:37.985Z,205
2017-03-04T09:25:48.853Z,205
2017-03-04T09:26:59.267Z,200
2017-03-04T09:28:09.694Z,210
2017-03-04T09:29:20.122Z,210
2017-03-04T09:30:30.148Z,220
2017-03-04T09:31:39.795Z,220
2017-03-04T09:32:50.231Z,195
2017-03-04T09:34:01.038Z,205
2017-03-04T09:35:11.835Z,220
2017-03-04T09:36:22.237Z,210
2017-03-04T09:37:32.259Z,225
2017-03-04T09:38:43.090Z,225
2017-03-04T09:39:53.897Z,225
2017-03-04T09:41:04.695Z,230
2017-03-04T09:42:15.496Z,230
2017-03-04T09:43:25.492Z,225
2017-03-04T09:44:36.278Z,235
2017-03-04T09:45:46.677Z,240
2017-03-04T09:46:57.529Z,235
2017-03-04T09:48:08.299Z,230
2017-03-04T09:49:18.714Z,230
2017-03-04T09:50:29.511Z,235
2017-03-04T09:51:39.520Z,240
2017-03-04T09:52:50.351Z,230
2017-03-04T09:54:01.168Z,240
2017-03-04T09:55:11.974Z,235
2017-03-04T09:56:22.792Z,240
2017-03-04T09:57:33.218Z,240
2017-03-04T09:58:44.040Z,240
2017-03-04T09:59:54.866Z,235
2017-03-04T10:01:05.659Z,225
2017-03-04T10:02:16.079Z,215
2017-03-04T10:03:26.501Z,205
2017-03-04T10:04:36.892Z,230
2017-03-04T10:05:47.662Z,235
2017-03-04T10:06:58.465Z,235
2017-03-04T10:08:09.268Z,235
2017-03-04T10:09:19.671Z,235
2017-03-04T10:10:30.074Z,230
2017-03-04T10:11:40.870Z,235
2017-03-04T10:12:51.284Z,245
2017-03-04T10:14:02.079Z,245
2017-03-04T10:15:12.861Z,245
2017-03-04T10:16:23.662Z,245
2017-03-04T10:17:33.643Z,245
2017-03-04T10:18:44.438Z,245
2017-03-04T10:19:54.834Z,245
2017-03-04T10:21:05.630Z,245
2017-03-04T10:22:16.415Z,245
2017-03-04T10:23:26.846Z,245
2017-03-04T10:24:36.868Z,250
2017-03-04T10:25:47.272Z,245
2017-03-04T10:26:58.091Z,245
2017-03-04T10:28:08.943Z,250
2017-03-04T10:29:19.747Z,245
2017-03-04T10:30:29.827Z,250
2017-03-04T10:31:39.669Z,250
2017-03-04T10:32:50.224Z,250
2017-03-04T10:34:00.637Z,250
2017-03-04T10:35:11.021Z,250
2017-03-04T10:36:21.849Z,250
2017-03-04T10:37:32.665Z,250
2017-03-04T10:38:43.477Z,250
2017-03-04T10:39:53.888Z,250
2017-03-04T10:41:04.673Z,250
2017-03-04T10:42:14.710Z,250
2017-03-04T10:43:24.714Z,250
2017-03-04T10:44:35.165Z,250
2017-03-04T10:45:45.177Z,250
2017-03-04T10:46:56.015Z,250
2017-03-04T10:48:06.030Z,250
2017-03-04T10:49:16.822Z,255
2017-03-04T10:50:27.664Z,250
2017-03-04T10:51:38.476Z,250
2017-03-04T10:52:49.303Z,250
2017-03-04T10:54:00.095Z,250
2017-03-04T10:55:10.534Z,250
2017-03-04T10:56:21.322Z,250
2017-03-04T10:57:31.350Z,245
2017-03-04T10:58:42.188Z,250
2017-03-04T10:59:52.637Z,255
2017-03-04T11:01:03.051Z,255
2017-03-04T11:02:13.861Z,260
2017-03-04T11:03:24.660Z,260
2017-03-04T11:04:35.110Z,260
2017-03-04T11:05:45.942Z,260
2017-03-04T11:06:56.743Z,265
2017-03-04T11:08:07.551Z,260
2017-03-04T11:09:18.405Z,265
2017-03-04T11:10:28.827Z,265
2017-03-04T11:11:39.656Z,260
2017-03-04T11:12:50.049Z,260
2017-03-04T11:14:00.872Z,260
2017-03-04T11:15:11.302Z,260
2017-03-04T11:16:21.690Z,260
2017-03-04T11:17:32.511Z,260
2017-03-04T11:18:43.290Z,260
2017-03-04T11:19:53.656Z,255
2017-03-04T11:21:03.684Z,255
2017-03-04T11:22:13.690Z,255
2017-03-04T11:23:24.498Z,255
2017-03-04T11:24:34.931Z,255
2017-03-04T11:25:45.337Z,260
2017-03-04T11:26:54.960Z,260
2017-03-04T11:28:05.404Z,255
2017-03-04T11:29:16.217Z,260
2017-03-04T11:30:26.605Z,255
2017-03-04T11:31:37.001Z,255
2017-03-04T11:32:46.621Z,260
2017-03-04T11:33:57.034Z,260
2017-03-04T11:35:07.840Z,255
2017-03-04T11:36:18.292Z,260
2017-03-04T11:37:29.096Z,260
2017-03-04T11:38:39.124Z,260
2017-03-04T11:39:49.522Z,260
2017-03-04T11:40:58.791Z,260
2017-03-04T11:42:09.606Z,260
2017-03-04T11:43:20.396Z,260
2017-03-04T11:44:30.836Z,260
2017-03-04T11:45:41.246Z,260
2017-03-04T11:46:51.636Z,260
2017-03-04T11:48:02.425Z,260
2017-03-04T11:49:12.431Z,255
2017-03-04T11:50:22.459Z,260
2017-03-04T11:51:33.275Z,260
2017-03-04T11:52:43.697Z,265
2017-03-04T11:53:54.094Z,260
2017-03-04T11:55:04.112Z,260
2017-03-04T11:56:14.125Z,260
2017-03-04T11:57:24.928Z,260
2017-03-04T11:58:34.969Z,260
2017-03-04T11:59:44.972Z,260
2017-03-04T12:00:55.758Z,260
2017-03-04T12:02:04.964Z,260
2017-03-04T12:03:15.744Z,260
2017-03-04T12:04:26.151Z,260
2017-03-04T12:05:36.387Z,260
2017-03-04T12:06:46.808Z,260
2017-03-04T12:07:57.213Z,260
2017-03-04T12:09:07.663Z,260
2017-03-04T12:10:18.468Z,260
2017-03-04T12:11:29.286Z,260
2017-03-04T12:12:40.096Z,260
2017-03-04T12:13:50.875Z,265
2017-03-04T12:15:01.708Z,265
2017-03-04T12:16:12.116Z,270
2017-03-04T12:17:22.149Z,265
2017-03-04T12:18:32.576Z,270
2017-03-04T12:19:42.588Z,270
2017-03-04T12:20:53.392Z,270
2017-03-04T12:22:03.397Z,270
2017-03-04T12:23:14.491Z,275
2017-03-04T12:24:25.355Z,270
2017-03-04T12:25:36.228Z,275
2017-03-04T12:26:47.039Z,275
2017-03-04T12:27:57.887Z,275
2017-03-04T12:29:08.727Z,275
2017-03-04T12:30:19.557Z,275
2017-03-04T12:31:29.588Z,275
2017-03-04T12:32:40.053Z,275
2017-03-04T12:33:49.662Z,275
2017-03-04T12:34:59.352Z,275
2017-03-04T12:36:09.779Z,275
2017-03-04T12:37:20.574Z,275
2017-03-04T12:38:30.599Z,275
2017-03-04T12:39:41.399Z,275
2017-03-04T12:40:51.837Z,275
2017-03-04T12:42:02.235Z,275
2017-03-04T12:43:12.640Z,270
2017-03-04T12:44:23.050Z,270
2017-03-04T12:45:33.469Z,270
2017-03-04T12:46:43.885Z,270
2017-03-04T12:47:53.930Z,270
2017-03-04T12:49:04.374Z,270
2017-03-04T12:50:15.195Z,270
2017-03-04T12:51:25.589Z,265
2017-03-04T12:52:35.211Z,265
2017-03-04T12:53:46.014Z,265
2017-03-04T12:54:56.821Z,265
2017-03-04T12:56:07.240Z,260
2017-03-04T12:57:17.271Z,260
2017-03-04T12:58:28.107Z,260
2017-03-04T12:59:38.133Z,260
2017-03-04T13:00:48.558Z,255
2017-03-04T13:01:59.377Z,255
2017-03-04T13:03:09.796Z,250
2017-03-04T13:04:20.575Z,250
2017-03-04T13:05:30.612Z,250
2017-03-04T13:06:41.442Z,250
2017-03-04T13:07:51.857Z,250
2017-03-04T13:09:02.277Z,255
2017-03-04T13:10:12.702Z,250
2017-03-04T13:11:23.511Z,250
2017-03-04T13:12:33.906Z,245
2017-03-04T13:13:44.314Z,245
2017-03-04T13:14:55.141Z,240
2017-03-04T13:16:05.565Z,240
2017-03-04T13:17:16.398Z,240
2017-03-04T13:18:27.247Z,240
2017-03-04T13:19:37.254Z,235
2017-03-04T13:20:48.074Z,235
2017-03-04T13:21:58.715Z,235
2017-03-04T13:23:09.139Z,230
2017-03-04T13:24:19.951Z,235
2017-03-04T13:25:30.341Z,230
2017-03-04T13:26:41.149Z,230
2017-03-04T13:27:51.949Z,225
2017-03-04T13:29:02.361Z,230
2017-03-04T13:30:13.189Z,230
2017-03-04T13:31:23.986Z,230
2017-03-04T13:32:34.781Z,225
2017-03-04T13:33:45.624Z,225
2017-03-04T13:34:56.026Z,225
2017-03-04T13:36:06.881Z,225
2017-03-04T13:37:17.679Z,225
2017-03-04T13:38:27.702Z,220
2017-03-04T13:39:38.105Z,220
2017-03-04T13:40:48.511Z,220
2017-03-04T13:41:58.915Z,220
2017-03-04T13:43:09.317Z,220
2017-03-04T13:44:18.927Z,225
2017-03-04T13:45:29.753Z,215
2017-03-04T13:46:40.569Z,215
2017-03-04T13:47:51.385Z,215
2017-03-04T13:49:01.021Z,215
2017-03-04T13:50:11.043Z,215
2017-03-04T13:51:21.845Z,215
2017-03-04T13:52:32.632Z,215
2017-03-04T13:53:43.096Z,210
2017-03-04T13:54:53.491Z,215
2017-03-04T13:56:03.502Z,210
2017-03-04T13:57:13.924Z,215
2017-03-04T13:58:24.709Z,210
2017-03-04T13:59:35.123Z,210
2017-03-04T14:00:45.538Z,210
2017-03-04T14:01:55.983Z,205
2017-03-04T14:03:06.828Z,200
2017-03-04T14:04:17.620Z,205
2017-03-04T14:05:28.414Z,185
2017-03-04T14:06:39.229Z,185
2017-03-04T14:07:50.074Z,175
2017-03-04T14:09:00.876Z,160
2017-03-04T14:10:11.277Z,165
2017-03-04T14:11:21.709Z,160
2017-03-04T14:12:32.531Z,165
2017-03-04T14:13:43.351Z,160
2017-03-04T14:14:54.148Z,165
2017-03-04T14:16:04.956Z,160
2017-03-04T14:17:14.976Z,170
2017-03-04T14:18:25.403Z,165
2017-03-04T14:19:35.822Z,145
2017-03-04T14:20:46.629Z,145
2017-03-04T14:21:56.229Z,155
2017-03-04T14:23:07.038Z,150
2017-03-04T14:24:17.437Z,130
2017-03-04T14:25:28.247Z,135
2017-03-04T14:26:39.065Z,135
2017-03-04T14:27:49.493Z,135
2017-03-04T14:28:59.921Z,135
2017-03-04T14:30:10.725Z,165
2017-03-04T14:31:21.537Z,170
2017-03-04T14:32:31.938Z,180
2017-03-04T14:33:42.383Z,165
2017-03-04T14:34:52.435Z,150
2017-03-04T14:36:02.885Z,145
2017-03-04T14:37:12.906Z,145
2017-03-04T14:38:23.316Z,135
2017-03-04T14:39:33.736Z,115
2017-03-04T14:40:43.758Z,105
2017-03-04T14:41:54.589Z,105
2017-03-04T14:43:05.423Z,105
2017-03-04T14:44:15.832Z,100
2017-03-04T14:45:26.647Z,100
2017-03-04T14:46:37.451Z,100
2017-03-04T14:47:48.265Z,100
2017-03-04T14:48:58.901Z,105
2017-03-04T14:50:09.721Z,105
2017-03-04T14:51:20.531Z,105
2017-03-04T14:52:30.930Z,100
2017-03-04T14:53:41.365Z,100
2017-03-04T14:54:51.769Z,100
2017-03-04T14:56:01.765Z,100
2017-03-04T14:57:11.615Z,95
2017-03-04T14:58:22.422Z,95
2017-03-04T14:59:32.857Z,90
2017-03-04T15:00:43.300Z,90
2017-03-04T15:01:53.703Z,90
2017-03-04T15:03:04.523Z,90
2017-03-04T15:04:15.336Z,90
2017-03-04T15:05:25.344Z,90
2017-03-04T15:06:35.366Z,90
2017-03-04T15:07:46.183Z,90
2017-03-04T15:08:57.031Z,90
2017-03-04T15:10:07.444Z,90
2017-03-04T15:11:18.232Z,90
2017-03-04T15:12:28.649Z,90
2017-03-04T15:13:39.457Z,90
2017-03-04T15:14:50.302Z,90
2017-03-04T15:16:01.084Z,90
2017-03-04T15:17:11.116Z,90
2017-03-04T15:18:21.144Z,90
2017-03-04T15:19:31.573Z,90
2017-03-04T15:20:42.402Z,85
2017-03-04T15:21:53.227Z,85
2017-03-04T15:23:03.638Z,85
2017-03-04T15:24:14.046Z,85
2017-03-04T15:25:24.830Z,85
2017-03-04T15:26:35.619Z,80
2017-03-04T15:27:46.512Z,80
2017-03-04T15:28:56.520Z,80
2017-03-04T15:30:07.331Z,75
2017-03-04T15:31:18.166Z,75
2017-03-04T15:32:28.584Z,75
2017-03-04T15:33:38.630Z,70
2017-03-04T15:34:49.028Z,70
2017-03-04T15:35:59.449Z,70
2017-03-04T15:37:09.089Z,65
2017-03-04T15:38:19.138Z,65
2017-03-04T15:39:29.567Z,60
2017-03-04T15:40:40.367Z,60
2017-03-04T15:41:50.788Z,60
2017-03-04T15:43:01.640Z,60
2017-03-04T15:44:12.039Z,55
2017-03-04T15:45:22.499Z,55
2017-03-04T15:46:33.307Z,60
2017-03-04T15:47:44.104Z,60
2017-03-04T15:48:54.889Z,50
2017-03-04T15:50:05.328Z,50
2017-03-04T15:51:16.137Z,50
2017-03-04T15:52:26.150Z,50
2017-03-04T15:53:36.579Z,50
2017-03-04T15:54:46.994Z,45
2017-03-04T15:55:57.442Z,50
2017-03-04T15:57:07.459Z,50
2017-03-04T15:58:18.276Z,45
2017-03-04T15:59:28.278Z,45
2017-03-04T16:00:39.115Z,40
2017-03-04T16:01:49.905Z,40
2017-03-04T16:03:00.926Z,40
2017-03-04T16:04:11.389Z,35
2017-03-04T16:05:22.181Z,35
2017-03-04T16:06:33.018Z,35
2017-03-04T16:07:43.465Z,30
2017-03-04T16:08:54.251Z,30
2017-03-04T16:10:05.100Z,30
2017-03-04T16:11:15.491Z,30
2017-03-04T16:12:25.152Z,25
2017-03-04T16:13:35.963Z,25
2017-03-04T16:14:45.980Z,25
2017-03-04T16:15:56.822Z,20
2017-03-04T16:17:07.633Z,20
2017-03-04T16:18:18.429Z,20
2017-03-04T16:19:28.844Z,15
2017-03-04T16:20:38.879Z,15
2017-03-04T16:21:48.894Z,15
2017-03-04T16:22:59.709Z,15
2017-03-04T16:24:10.131Z,15
2017-03-04T16:25:20.151Z,10
2017-03-04T16:26:30.958Z,10
2017-03-04T16:27:41.364Z,10
2017-03-04T16:28:51.370Z,10
2017-03-04T16:30:01.407Z,10
2017-03-04T16:31:11.852Z,5
2017-03-04T16:32:22.272Z,5
2017-03-04T16:33:33.058Z,5
2017-03-04T16:34:43.476Z,5
2017-03-04T16:35:53.892Z,5
2017-03-04T16:37:04.725Z,5
2017-03-04T16:38:15.538Z,5
2017-03-04T16:39:26.340Z,0
2017-03-04T16:40:36.794Z,0
2017-03-04T16:41:47.214Z,0
2017-03-04T16:42:57.630Z,0
2017-03-04T16:44:07.693Z,0
2017-03-04T16:45:17.730Z,0
2017-03-04T16:46:28.146Z,0
2017-03-04T16:47:38.568Z,0
2017-03-04T16:48:49.000Z,0
2017-03-04T16:49:59.861Z,0
2017-03-04T16:51:09.860Z,0
2017-03-04T16:52:20.269Z,0
2017-03-04T16:53:31.097Z,0
2017-03-04T16:54:41.474Z,0
2017-03-04T16:55:51.502Z,0
2017-03-04T16:57:01.913Z,0
2017-03-04T16:58:12.347Z,0
2017-03-04T16:59:23.445Z,0
2017-03-04T17:00:34.272Z,0
2017-03-04T17:01:45.099Z,0
2017-03-04T17:02:55.936Z,0
2017-03-04T17:04:05.952Z,0
2017-03-04T17:05:16.423Z,0
2017-03-04T17:06:27.232Z,0
2017-03-04T17:07:37.662Z,0
2017-03-04T17:08:47.747Z,0
2017-03-04T17:09:57.781Z,0